New Blessing — 3EBD7 — position and weather

sailwx.info

Track history (hours):
 
Tides and Currents Weather Stations Pressure Air Temp Water Temp Dewpoint Dewpoint Depression Visibility Wind Speed Wind Dir Waves Ship Positions

New Blessing

Last reported at 2018-Mar-29 13:39 UTC. Time now 2018-Apr-27 05:05 UTC.
Position N 20°55' E 069°20'.
Warning: this ship's position is 28 days out of date.

Length 176 m; draft 6.1 m.

Type: Cargo ship. MMSI: 367513184.

Date/timePositionNaut miles runAvg speedWind from/ knotsBaromVisibWave heightAir tempDewpointWater temp
2018-Mar-29 13:39N 20°55' E 069°20'1 6.4
2018-Mar-29 13:30N 20°55' E 069°21'52 6.8
2018-Mar-29 05:54N 20°36' E 070°12'3 6.8
2018-Mar-29 05:28N 20°35' E 070°15'28 6.6
2018-Mar-29 01:13N 20°27' E 070°44'1 7.0
2018-Mar-29 01:00N 20°26' E 070°46'4 7.1
2018-Mar-29 00:29N 20°25' E 070°49'4 7.1
2018-Mar-28 23:59N 20°24' E 070°53'5 7.0
2018-Mar-28 23:15N 20°26' E 070°58'2 8.0
2018-Mar-28 23:00N 20°28' E 070°59'4 8.1
2018-Mar-28 22:28N 20°30' E 071°03'4 8.3
2018-Mar-28 22:00N 20°33' E 071°06'4 8.3
2018-Mar-28 21:30N 20°36' E 071°09'4 8.0
2018-Mar-28 20:58N 20°39' E 071°13'5 7.4
2018-Mar-28 20:20N 20°41' E 071°17'2 6.9
2018-Mar-28 20:00N 20°43' E 071°19'3 6.6
2018-Mar-28 19:29N 20°45' E 071°22'3 5.9
2018-Mar-28 18:59N 20°47' E 071°24'3 5.3
2018-Mar-28 18:30N 20°49' E 071°26'2 4.7
2018-Mar-28 18:00N 20°50' E 071°28'2 3.8
2018-Mar-28 17:30N 20°51' E 071°29'2 4.1
2018-Mar-28 17:00N 20°53' E 071°30'2 4.4
2018-Mar-28 16:29N 20°55' E 071°31'0 0.1
2018-Mar-28 16:00N 20°55' E 071°31'0 0.0
2018-Mar-28 15:16N 20°55' E 071°31'0 0.0
2018-Mar-28 14:46N 20°55' E 071°31'0 0.0
2018-Mar-28 14:16N 20°55' E 071°31'0 0.0
2018-Mar-28 13:46N 20°55' E 071°31'0 0.0
2018-Mar-28 13:28N 20°55' E 071°31'0 0.0
2018-Mar-28 12:58N 20°55' E 071°31'0 0.0
2018-Mar-28 12:28N 20°55' E 071°31'0 0.0
2018-Mar-28 11:58N 20°55' E 071°31'0 0.0
2018-Mar-28 11:22N 20°55' E 071°31'0 0.0
2018-Mar-28 08:04N 20°55' E 071°31'0 0.0
2018-Mar-28 07:46N 20°55' E 071°31'0 0.0
2018-Mar-28 03:22N 20°55' E 071°31'0 0.0
2018-Mar-27 19:46N 20°55' E 071°31'0 0.0
2018-Mar-27 19:10N 20°55' E 071°31'0 0.0
2018-Mar-27 18:52N 20°55' E 071°31'0 0.0
2018-Mar-27 18:16N 20°55' E 071°31'0 0.1
2018-Mar-27 14:30N 20°55' E 071°31'4 5.4
2018-Mar-27 13:43N 20°51' E 071°32'0 1.7
2018-Mar-27 13:26N 20°51' E 071°32'0 0.0
2018-Mar-27 06:38N 20°51' E 071°32'0 0.1
2018-Mar-27 06:26N 20°51' E 071°32'0 0.0
2018-Mar-27 05:44N 20°51' E 071°33'0 0.0
2018-Mar-27 05:20N 20°51' E 071°33'0 0.0
2018-Mar-27 04:02N 20°51' E 071°33'47 1.9
2018-Mar-26 03:41N 20°22' E 070°53'1 6.7
2018-Mar-26 03:30N 20°21' E 070°52'4 6.9
2018-Mar-26 02:58N 20°22' E 070°48'  
Track history (hours):
 
Tides and Currents Weather Stations Pressure Air Temp Water Temp Dewpoint Dewpoint Depression Visibility Wind Speed Wind Dir Waves Ship Positions

New Blessing

Last reported at 2018-Mar-29 13:39 UTC. Time now 2018-Apr-27 05:05 UTC.
Position N 20°55' E 069°20'.
Warning: this ship's position is 28 days out of date.

Length 176 m; draft 6.1 m.

Type: Cargo ship. MMSI: 367513184.

Date/timePositionNaut miles runAvg speedWind from/ knotsBaromVisibWave heightAir tempDewpointWater temp
2018-Mar-29 13:39N 20°55' E 069°20'1 6.4
2018-Mar-29 13:30N 20°55' E 069°21'52 6.8
2018-Mar-29 05:54N 20°36' E 070°12'3 6.8
2018-Mar-29 05:28N 20°35' E 070°15'28 6.6
2018-Mar-29 01:13N 20°27' E 070°44'1 7.0
2018-Mar-29 01:00N 20°26' E 070°46'4 7.1
2018-Mar-29 00:29N 20°25' E 070°49'4 7.1
2018-Mar-28 23:59N 20°24' E 070°53'5 7.0
2018-Mar-28 23:15N 20°26' E 070°58'2 8.0
2018-Mar-28 23:00N 20°28' E 070°59'4 8.1
2018-Mar-28 22:28N 20°30' E 071°03'4 8.3
2018-Mar-28 22:00N 20°33' E 071°06'4 8.3
2018-Mar-28 21:30N 20°36' E 071°09'4 8.0
2018-Mar-28 20:58N 20°39' E 071°13'5 7.4
2018-Mar-28 20:20N 20°41' E 071°17'2 6.9
2018-Mar-28 20:00N 20°43' E 071°19'3 6.6
2018-Mar-28 19:29N 20°45' E 071°22'3 5.9
2018-Mar-28 18:59N 20°47' E 071°24'3 5.3
2018-Mar-28 18:30N 20°49' E 071°26'2 4.7
2018-Mar-28 18:00N 20°50' E 071°28'2 3.8
2018-Mar-28 17:30N 20°51' E 071°29'2 4.1
2018-Mar-28 17:00N 20°53' E 071°30'2 4.4
2018-Mar-28 16:29N 20°55' E 071°31'0 0.1
2018-Mar-28 16:00N 20°55' E 071°31'0 0.0
2018-Mar-28 15:16N 20°55' E 071°31'0 0.0
2018-Mar-28 14:46N 20°55' E 071°31'0 0.0
2018-Mar-28 14:16N 20°55' E 071°31'0 0.0
2018-Mar-28 13:46N 20°55' E 071°31'0 0.0
2018-Mar-28 13:28N 20°55' E 071°31'0 0.0
2018-Mar-28 12:58N 20°55' E 071°31'0 0.0
2018-Mar-28 12:28N 20°55' E 071°31'0 0.0
2018-Mar-28 11:58N 20°55' E 071°31'0 0.0
2018-Mar-28 11:22N 20°55' E 071°31'0 0.0
2018-Mar-28 08:04N 20°55' E 071°31'0 0.0
2018-Mar-28 07:46N 20°55' E 071°31'0 0.0
2018-Mar-28 03:22N 20°55' E 071°31'0 0.0
2018-Mar-27 19:46N 20°55' E 071°31'0 0.0
2018-Mar-27 19:10N 20°55' E 071°31'0 0.0
2018-Mar-27 18:52N 20°55' E 071°31'0 0.0
2018-Mar-27 18:16N 20°55' E 071°31'0 0.1
2018-Mar-27 14:30N 20°55' E 071°31'4 5.4
2018-Mar-27 13:43N 20°51' E 071°32'0 1.7
2018-Mar-27 13:26N 20°51' E 071°32'0 0.0
2018-Mar-27 06:38N 20°51' E 071°32'0 0.1
2018-Mar-27 06:26N 20°51' E 071°32'0 0.0
2018-Mar-27 05:44N 20°51' E 071°33'0 0.0
2018-Mar-27 05:20N 20°51' E 071°33'0 0.0
2018-Mar-27 04:02N 20°51' E 071°33'47 1.9
2018-Mar-26 03:41N 20°22' E 070°53'1 6.7
2018-Mar-26 03:30N 20°21' E 070°52'4 6.9
2018-Mar-26 02:58N 20°22' E 070°48'  

Dump ship's entire track history